createdAt,value
2022-09-27T00:02:23.404Z,61.03
2022-09-27T00:05:24.937Z,61.16
2022-09-27T00:08:26.480Z,61.25
2022-09-27T00:11:32.134Z,61.17
2022-09-27T00:14:33.667Z,61.23
2022-09-27T00:17:35.262Z,61.23
2022-09-27T00:20:36.942Z,61.23
2022-09-27T00:23:39.605Z,61.17
2022-09-27T00:26:42.012Z,61.24
2022-09-27T00:29:45.017Z,61.27
2022-09-27T00:32:46.653Z,61.26
2022-09-27T00:35:48.350Z,61.20
2022-09-27T00:38:50.211Z,61.14
2022-09-27T00:41:51.756Z,61.27
2022-09-27T00:45:22.701Z,61.28
2022-09-27T00:48:28.952Z,61.26
2022-09-27T00:51:34.356Z,61.19
2022-09-27T00:54:40.612Z,61.23
2022-09-27T00:57:44.365Z,61.28
2022-09-27T01:00:51.040Z,61.31
2022-09-27T01:04:11.679Z,61.38
2022-09-27T01:07:13.633Z,61.33
2022-09-27T01:10:17.115Z,61.29
2022-09-27T01:13:36.018Z,61.22
2022-09-27T01:17:06.474Z,61.39
2022-09-27T01:20:41.142Z,61.31
2022-09-27T01:23:42.908Z,61.34
2022-09-27T01:26:47.558Z,61.40
2022-09-27T01:30:21.283Z,61.46
2022-09-27T01:33:31.969Z,61.41
2022-09-27T01:37:04.698Z,61.26
2022-09-27T01:40:06.269Z,61.45
2022-09-27T01:43:07.806Z,61.42
2022-09-27T01:46:16.055Z,61.43
2022-09-27T01:49:24.698Z,61.54
2022-09-27T01:52:33.381Z,61.44
2022-09-27T01:55:38.525Z,61.47
2022-09-27T01:58:51.983Z,61.49
2022-09-27T02:01:54.838Z,61.49
2022-09-27T02:05:03.307Z,61.52
2022-09-27T02:08:15.212Z,61.42
2022-09-27T02:11:17.321Z,61.70
2022-09-27T02:14:23.820Z,61.49
2022-09-27T02:17:37.850Z,61.55
2022-09-27T02:20:44.986Z,61.42
2022-09-27T02:23:53.127Z,61.43
2022-09-27T02:27:06.085Z,61.45
2022-09-27T02:30:11.981Z,61.47
2022-09-27T02:33:13.763Z,61.53
2022-09-27T02:36:15.583Z,61.47
2022-09-27T02:39:18.650Z,61.50
2022-09-27T02:42:20.616Z,61.51
2022-09-27T02:45:22.694Z,61.54
2022-09-27T02:48:42.490Z,61.53
2022-09-27T02:52:00.645Z,61.46
2022-09-27T02:55:08.329Z,61.47
2022-09-27T02:58:19.026Z,61.60
2022-09-27T03:01:29.319Z,61.54
2022-09-27T03:04:56.012Z,61.63
2022-09-27T03:07:58.037Z,61.66
2022-09-27T03:10:59.713Z,61.51
2022-09-27T03:14:08.903Z,61.64
2022-09-27T03:17:11.126Z,61.67
2022-09-27T03:20:13.069Z,61.57
2022-09-27T03:23:14.669Z,61.59
2022-09-27T03:26:16.186Z,61.63
2022-09-27T03:29:17.735Z,61.55
2022-09-27T03:32:19.283Z,61.64
2022-09-27T03:35:21.220Z,61.62
2022-09-27T03:38:22.759Z,61.69
2022-09-27T03:41:24.396Z,61.72
2022-09-27T03:44:26.023Z,61.67
2022-09-27T03:47:27.814Z,61.70
2022-09-27T03:50:29.815Z,61.67
2022-09-27T03:53:31.466Z,61.79
2022-09-27T03:56:33.293Z,61.73
2022-09-27T03:59:34.887Z,61.72
2022-09-27T04:02:36.476Z,61.69
2022-09-27T04:05:38.076Z,61.68
2022-09-27T04:08:39.673Z,61.61
2022-09-27T04:11:41.245Z,61.77
2022-09-27T04:14:42.793Z,61.85
2022-09-27T04:17:44.330Z,61.85
2022-09-27T04:20:45.928Z,61.81
2022-09-27T04:23:47.519Z,61.82
2022-09-27T04:26:49.274Z,61.84
2022-09-27T04:29:50.837Z,61.88
2022-09-27T04:32:52.440Z,61.98
2022-09-27T04:36:12.511Z,61.89
2022-09-27T04:39:15.270Z,61.85
2022-09-27T04:42:17.733Z,61.96
2022-09-27T04:45:20.133Z,61.84
2022-09-27T04:48:21.940Z,62.07
2022-09-27T04:51:23.533Z,62.48
2022-09-27T04:54:25.290Z,62.17
2022-09-27T04:57:26.883Z,62.07
2022-09-27T05:00:29.173Z,61.83
2022-09-27T05:03:33.825Z,61.95
2022-09-27T05:06:35.630Z,61.83
2022-09-27T05:09:37.158Z,61.80
2022-09-27T05:12:38.714Z,61.88
2022-09-27T05:15:40.383Z,61.98
2022-09-27T05:18:42.352Z,61.80
2022-09-27T05:21:43.905Z,61.87
2022-09-27T05:24:45.865Z,62.00
2022-09-27T05:27:47.419Z,61.90
2022-09-27T05:30:49.030Z,61.97
2022-09-27T05:33:50.629Z,61.92
2022-09-27T05:36:52.264Z,62.08
2022-09-27T05:39:53.855Z,62.11
2022-09-27T05:42:55.945Z,61.98
2022-09-27T05:45:58.855Z,62.08
2022-09-27T05:49:00.563Z,62.00
2022-09-27T05:52:02.140Z,62.16
2022-09-27T05:55:03.985Z,61.97
2022-09-27T05:58:07.819Z,62.00
2022-09-27T06:01:10.120Z,62.04
2022-09-27T06:04:11.781Z,62.03
2022-09-27T06:07:13.341Z,62.10
2022-09-27T06:10:15.129Z,62.19
2022-09-27T06:13:17.733Z,61.91
2022-09-27T06:16:19.388Z,62.02
2022-09-27T06:19:21.615Z,62.13
2022-09-27T06:22:24.079Z,62.17
2022-09-27T06:25:26.950Z,62.03
2022-09-27T06:28:28.465Z,62.05
2022-09-27T06:31:30.218Z,62.14
2022-09-27T06:34:32.725Z,62.04
2022-09-27T06:37:34.732Z,62.22
2022-09-27T06:40:37.048Z,62.22
2022-09-27T06:43:38.637Z,62.11
2022-09-27T06:46:40.288Z,62.05
2022-09-27T06:49:41.829Z,62.08
2022-09-27T06:52:49.857Z,62.19
2022-09-27T06:55:52.121Z,62.27
2022-09-27T06:59:11.960Z,62.14
2022-09-27T07:02:14.132Z,62.15
2022-09-27T07:05:15.715Z,62.74
2022-09-27T07:08:17.291Z,62.51
2022-09-27T07:11:19.644Z,62.65
2022-09-27T07:14:21.904Z,62.45
2022-09-27T07:17:23.613Z,62.38
2022-09-27T07:20:26.383Z,62.21
2022-09-27T07:23:29.137Z,61.97
2022-09-27T07:26:30.688Z,62.09
2022-09-27T07:29:32.470Z,62.04
2022-09-27T07:32:35.663Z,62.10
2022-09-27T07:35:40.319Z,62.09
2022-09-27T07:38:42.422Z,62.20
2022-09-27T07:41:44.232Z,62.14
2022-09-27T07:44:45.811Z,62.17
2022-09-27T07:47:48.364Z,62.07
2022-09-27T07:50:49.964Z,62.16
2022-09-27T07:53:51.689Z,62.08
2022-09-27T07:56:53.228Z,62.11
2022-09-27T07:59:54.777Z,62.15
2022-09-27T08:02:56.352Z,62.22
2022-09-27T08:05:57.999Z,62.20
2022-09-27T08:08:59.795Z,62.12
2022-09-27T08:12:01.571Z,62.20
2022-09-27T08:15:04.698Z,62.21
2022-09-27T08:18:07.982Z,62.21
2022-09-27T08:21:09.672Z,62.97
2022-09-27T08:24:11.227Z,62.38
2022-09-27T08:27:13.465Z,62.29
2022-09-27T08:30:15.089Z,62.22
2022-09-27T08:33:17.451Z,62.13
2022-09-27T08:36:20.288Z,62.27
2022-09-27T08:39:24.919Z,62.17
2022-09-27T08:42:51.912Z,62.32
2022-09-27T08:46:03.997Z,62.19
2022-09-27T08:49:32.314Z,62.20
2022-09-27T08:52:43.588Z,62.25
2022-09-27T08:55:57.577Z,62.30
2022-09-27T08:59:07.512Z,62.26
2022-09-27T09:02:21.850Z,62.30
2022-09-27T09:05:34.868Z,62.19
2022-09-27T09:08:42.920Z,62.19
2022-09-27T09:12:42.865Z,62.29
2022-09-27T09:15:54.548Z,62.24
2022-09-27T09:19:28.568Z,62.21
2022-09-27T09:22:37.285Z,62.26
2022-09-27T09:26:02.345Z,62.30
2022-09-27T09:29:19.125Z,62.40
2022-09-27T09:32:35.684Z,62.24
2022-09-27T09:35:49.076Z,62.12
2022-09-27T09:39:05.525Z,62.21
2022-09-27T09:42:07.202Z,62.14
2022-09-27T09:45:31.706Z,62.10
2022-09-27T09:48:45.886Z,62.26
2022-09-27T09:51:56.794Z,62.37
2022-09-27T09:55:07.469Z,62.26
2022-09-27T09:58:19.929Z,62.38
2022-09-27T10:01:26.809Z,62.25
2022-09-27T10:04:29.124Z,62.26
2022-09-27T10:07:33.951Z,62.29
2022-09-27T10:10:35.556Z,62.39
2022-09-27T10:13:37.227Z,62.43
2022-09-27T10:16:42.630Z,62.35
2022-09-27T10:19:45.497Z,62.28
2022-09-27T10:22:54.554Z,62.33
2022-09-27T10:26:00.448Z,62.30
2022-09-27T10:29:37.887Z,62.67
2022-09-27T10:32:41.860Z,62.56
2022-09-27T10:35:49.537Z,62.25
2022-09-27T10:38:55.888Z,62.25
2022-09-27T10:41:57.465Z,62.33
2022-09-27T10:45:19.034Z,62.37
2022-09-27T10:48:24.988Z,62.32
2022-09-27T10:51:31.451Z,62.33
2022-09-27T10:54:36.388Z,62.40
2022-09-27T10:57:41.775Z,62.35
2022-09-27T11:00:55.343Z,62.20
2022-09-27T11:04:00.519Z,62.39
2022-09-27T11:07:20.190Z,62.33
2022-09-27T11:10:36.347Z,62.37
2022-09-27T11:13:39.550Z,62.42
2022-09-27T11:17:08.786Z,62.87
2022-09-27T11:20:38.803Z,62.75
2022-09-27T11:24:05.367Z,62.63
2022-09-27T11:27:06.872Z,62.42
2022-09-27T11:30:14.007Z,62.46
2022-09-27T11:33:34.561Z,62.52
2022-09-27T11:36:49.498Z,62.50
2022-09-27T11:40:22.155Z,62.53
2022-09-27T11:43:36.050Z,62.42
2022-09-27T11:46:41.824Z,62.50
2022-09-27T11:50:12.578Z,62.48
2022-09-27T11:53:35.784Z,62.50
2022-09-27T11:57:04.502Z,62.56
2022-09-27T12:00:14.938Z,62.50
2022-09-27T12:03:38.014Z,62.52
2022-09-27T12:07:34.982Z,62.75
2022-09-27T12:10:39.767Z,62.60
2022-09-27T12:13:47.620Z,62.53
2022-09-27T12:16:52.280Z,62.50
2022-09-27T12:19:58.474Z,62.54
2022-09-27T12:23:21.331Z,62.38
2022-09-27T12:26:28.387Z,62.33
2022-09-27T12:29:34.265Z,62.52
2022-09-27T12:32:45.973Z,62.49
2022-09-27T12:35:53.079Z,62.47
2022-09-27T12:39:08.835Z,62.47
2022-09-27T12:42:35.002Z,62.44
2022-09-27T12:45:51.171Z,62.46
2022-09-27T12:49:13.844Z,62.34
2022-09-27T12:52:25.381Z,62.17
2022-09-27T12:56:02.220Z,62.26
2022-09-27T12:59:17.572Z,62.21
2022-09-27T13:02:44.520Z,62.34
2022-09-27T13:06:03.458Z,62.67
2022-09-27T13:09:11.042Z,62.86
2022-09-27T13:12:12.781Z,62.46
2022-09-27T13:15:22.955Z,62.22
2022-09-27T13:18:36.542Z,62.34
2022-09-27T13:21:49.966Z,62.34
2022-09-27T13:24:51.798Z,62.33
2022-09-27T13:27:53.335Z,62.25
2022-09-27T13:30:56.535Z,62.18
2022-09-27T13:33:58.148Z,62.54
2022-09-27T13:37:36.945Z,62.76
2022-09-27T13:40:42.985Z,62.53
2022-09-27T13:43:44.928Z,62.17
2022-09-27T13:46:55.645Z,62.33
2022-09-27T13:50:20.422Z,62.24
2022-09-27T13:53:30.290Z,62.10
2022-09-27T13:56:46.612Z,61.99
2022-09-27T13:59:53.012Z,62.02
2022-09-27T14:03:01.097Z,62.07
2022-09-27T14:06:08.917Z,62.11
2022-09-27T14:09:41.253Z,62.19
2022-09-27T14:12:44.337Z,62.07
2022-09-27T14:15:47.565Z,62.12
2022-09-27T14:18:53.941Z,62.09
2022-09-27T14:21:56.075Z,62.07
2022-09-27T14:24:58.063Z,62.17
2022-09-27T14:28:00.535Z,62.08
2022-09-27T14:31:25.487Z,62.12
2022-09-27T14:34:27.058Z,62.21
2022-09-27T14:37:29.902Z,62.28
2022-09-27T14:40:40.122Z,62.25
2022-09-27T14:43:45.301Z,62.19
2022-09-27T14:46:47.994Z,62.41
2022-09-27T14:50:00.240Z,62.42
2022-09-27T14:53:05.150Z,62.22
2022-09-27T14:56:08.287Z,62.19
2022-09-27T14:59:22.436Z,62.37
2022-09-27T15:02:26.467Z,62.20
2022-09-27T15:05:32.566Z,62.17
2022-09-27T15:08:34.847Z,62.16
2022-09-27T15:11:37.515Z,62.20
2022-09-27T15:14:42.690Z,62.17
2022-09-27T15:17:44.690Z,62.15
2022-09-27T15:20:54.166Z,62.17
2022-09-27T15:23:55.726Z,62.21
2022-09-27T15:26:58.858Z,62.21
2022-09-27T15:30:00.563Z,62.24
2022-09-27T15:33:03.475Z,62.27
2022-09-27T15:36:07.937Z,62.23
2022-09-27T15:39:13.994Z,62.27
2022-09-27T15:42:19.607Z,62.37
2022-09-27T15:45:51.491Z,62.11
2022-09-27T15:49:21.293Z,62.11
2022-09-27T15:52:52.260Z,62.00
2022-09-27T15:55:53.840Z,62.01
2022-09-27T15:58:55.447Z,62.11
2022-09-27T16:01:59.283Z,62.17
2022-09-27T16:05:01.996Z,62.06
2022-09-27T16:08:03.512Z,62.21
2022-09-27T16:11:05.775Z,62.22
2022-09-27T16:14:07.388Z,62.17
2022-09-27T16:17:10.348Z,62.29
2022-09-27T16:20:23.196Z,62.16
2022-09-27T16:23:24.884Z,62.17
2022-09-27T16:26:26.568Z,62.26
2022-09-27T16:29:28.244Z,62.12
2022-09-27T16:32:30.357Z,62.10
2022-09-27T16:35:32.120Z,62.15
2022-09-27T16:38:33.828Z,61.96
2022-09-27T16:41:35.797Z,62.06
2022-09-27T16:44:37.499Z,62.08
2022-09-27T16:47:39.437Z,62.11
2022-09-27T16:50:59.712Z,62.16
2022-09-27T16:54:02.160Z,61.98
2022-09-27T16:57:03.955Z,62.10
2022-09-27T17:00:06.468Z,62.23
2022-09-27T17:03:09.069Z,62.11
2022-09-27T17:06:11.489Z,62.12
2022-09-27T17:09:13.008Z,62.09
2022-09-27T17:12:15.206Z,62.10
2022-09-27T17:15:17.347Z,62.17
2022-09-27T17:18:18.982Z,62.13
2022-09-27T17:21:20.766Z,62.03
2022-09-27T17:24:22.661Z,62.02
2022-09-27T17:27:28.467Z,61.97
2022-09-27T17:30:29.978Z,61.82
2022-09-27T17:33:31.956Z,61.93
2022-09-27T17:36:37.423Z,61.80
2022-09-27T17:39:39.019Z,61.85
2022-09-27T17:42:40.557Z,61.86
2022-09-27T17:45:42.085Z,61.91
2022-09-27T17:49:02.402Z,61.96
2022-09-27T17:52:03.952Z,61.90
2022-09-27T17:55:05.793Z,61.82
2022-09-27T17:58:07.408Z,61.93
2022-09-27T18:01:08.965Z,61.88
2022-09-27T18:04:13.311Z,61.83
2022-09-27T18:07:14.997Z,61.76
2022-09-27T18:10:17.813Z,61.91
2022-09-27T18:13:19.590Z,61.70
2022-09-27T18:16:21.935Z,61.72
2022-09-27T18:19:24.639Z,61.66
2022-09-27T18:22:26.986Z,61.72
2022-09-27T18:25:28.524Z,61.55
2022-09-27T18:28:31.064Z,61.68
2022-09-27T18:31:33.245Z,61.58
2022-09-27T18:34:34.771Z,61.63
2022-09-27T18:37:36.361Z,61.74
2022-09-27T18:40:55.805Z,61.59
2022-09-27T18:44:01.249Z,61.48
2022-09-27T18:47:03.082Z,61.21
2022-09-27T18:50:05.192Z,61.45
2022-09-27T18:53:08.301Z,61.60
2022-09-27T18:56:13.353Z,61.44
2022-09-27T18:59:15.322Z,61.55
2022-09-27T19:02:16.978Z,61.52
2022-09-27T19:05:18.586Z,61.35
2022-09-27T19:08:20.110Z,61.44
2022-09-27T19:11:22.387Z,61.45
2022-09-27T19:14:23.986Z,61.38
2022-09-27T19:17:25.516Z,61.47
2022-09-27T19:20:27.112Z,61.53
2022-09-27T19:23:29.996Z,61.53
2022-09-27T19:26:31.564Z,61.38
2022-09-27T19:29:33.089Z,61.38
2022-09-27T19:32:34.627Z,61.51
2022-09-27T19:35:36.270Z,61.48
2022-09-27T19:38:38.800Z,61.46
2022-09-27T19:41:40.417Z,62.20
2022-09-27T19:44:42.414Z,62.11
2022-09-27T19:47:44.103Z,61.68
2022-09-27T19:50:56.017Z,61.47
2022-09-27T19:53:58.143Z,61.44
2022-09-27T19:56:59.998Z,61.46
2022-09-27T20:00:02.152Z,61.44
2022-09-27T20:03:04.224Z,61.45
2022-09-27T20:06:07.902Z,61.40
2022-09-27T20:09:10.016Z,61.54
2022-09-27T20:12:11.628Z,61.49
2022-09-27T20:15:14.877Z,61.52
2022-09-27T20:18:16.871Z,61.31
2022-09-27T20:21:20.173Z,61.41
2022-09-27T20:24:21.788Z,61.42
2022-09-27T20:27:23.337Z,61.43
2022-09-27T20:30:25.104Z,61.52
2022-09-27T20:33:44.228Z,61.44
2022-09-27T20:36:45.763Z,61.35
2022-09-27T20:39:47.269Z,61.33
2022-09-27T20:42:48.817Z,61.28
2022-09-27T20:45:50.325Z,61.29
2022-09-27T20:49:00.897Z,61.23
2022-09-27T20:52:02.617Z,61.16
2022-09-27T20:55:04.449Z,61.13
2022-09-27T20:58:05.985Z,61.24
2022-09-27T21:01:07.874Z,61.29
2022-09-27T21:04:09.926Z,61.04
2022-09-27T21:07:11.513Z,61.12
2022-09-27T21:10:13.008Z,61.09
2022-09-27T21:13:14.621Z,61.12
2022-09-27T21:16:22.546Z,61.33
2022-09-27T21:19:24.738Z,61.18
2022-09-27T21:22:26.733Z,61.24
2022-09-27T21:25:28.280Z,61.28
2022-09-27T21:28:34.489Z,61.34
2022-09-27T21:31:36.333Z,61.13
2022-09-27T21:34:37.923Z,61.30
2022-09-27T21:37:39.439Z,61.27
2022-09-27T21:40:41.074Z,61.12
2022-09-27T21:43:44.690Z,61.16
2022-09-27T21:46:46.365Z,61.27
2022-09-27T21:49:47.880Z,61.27
2022-09-27T21:52:49.640Z,61.20
2022-09-27T21:55:57.678Z,61.14
2022-09-27T21:58:59.463Z,61.00
2022-09-27T22:02:01.074Z,61.03
2022-09-27T22:05:02.720Z,61.03
2022-09-27T22:08:04.275Z,61.00
2022-09-27T22:11:06.415Z,61.19
2022-09-27T22:14:08.011Z,61.14
2022-09-27T22:17:09.512Z,60.92
2022-09-27T22:20:11.152Z,60.83
2022-09-27T22:23:12.736Z,60.91
2022-09-27T22:26:15.837Z,60.95
2022-09-27T22:29:18.038Z,60.84
2022-09-27T22:32:19.694Z,61.06
2022-09-27T22:35:21.897Z,60.96
2022-09-27T22:38:23.423Z,61.04
2022-09-27T22:41:25.554Z,61.17
2022-09-27T22:44:27.109Z,61.31
2022-09-27T22:47:29.121Z,61.34
2022-09-27T22:50:30.997Z,61.27
2022-09-27T22:53:32.636Z,61.27
2022-09-27T22:56:34.295Z,61.33
2022-09-27T22:59:35.853Z,61.37
2022-09-27T23:02:37.517Z,61.40
2022-09-27T23:05:39.067Z,61.40
2022-09-27T23:08:41.485Z,61.47
2022-09-27T23:11:43.735Z,61.31
2022-09-27T23:14:45.232Z,61.50
2022-09-27T23:17:50.363Z,61.45
2022-09-27T23:20:51.863Z,61.47
2022-09-27T23:23:59.634Z,61.42
2022-09-27T23:27:19.785Z,61.43
2022-09-27T23:30:22.644Z,61.46
2022-09-27T23:33:26.608Z,61.58
2022-09-27T23:36:28.365Z,61.47
2022-09-27T23:39:29.871Z,61.46
2022-09-27T23:42:31.432Z,61.53
2022-09-27T23:45:33.457Z,61.51
2022-09-27T23:48:36.098Z,61.50
2022-09-27T23:51:37.624Z,61.61
2022-09-27T23:54:39.199Z,61.63
2022-09-27T23:57:40.720Z,61.62
